Latest Weather Observations for Cape Leeuwin

IDW60801

Issued at 6:53 pm WST Thursday 21 November 2019 (issued every 10 minutes, with the page automatically refreshed every 10 minutes)

About weather observations | Map of weather stations | Latest weather observations for WA | Other Formats
Station Details ID: 009518 Name: CAPE LEEUWIN Lat: -34.37 Lon: 115.14 Height: 13.0 m
Data from the previous 72 hours. | See also: Recent months at Cape Leeuwin
Date/Time
WST
Temp
°C
App
Temp
°C
Dew
Point
°C
Rel
Hum
%
Delta-T
°C
Wind Press
QNH
hPa
Press
MSL
hPa
Rain since
9am
mm
Dir  Spd
km/h
Gust
km/h
Spd
kts
Gust
kts
21/06:30pm 16.9 10.7 11.4 70 3.0 W 35 43 19 23 1019.8 1019.8 0.0
21/06:00pm 16.8 10.4 10.6 67 3.3 W 35 43 19 23 1019.5 1019.5 0.0
21/05:30pm 17.0 10.9 10.4 65 3.5 W 33 39 18 21 1019.3 1019.3 0.0
21/05:00pm 17.0 12.3 10.8 67 3.3 WNW 26 32 14 17 1019.0 1019.0 0.0
21/04:30pm 16.9 11.1 10.7 67 3.3 W 32 39 17 21 1018.9 1018.9 0.0
21/04:00pm 17.3 11.7 11.6 69 3.1 W 32 39 17 21 1018.7 1018.7 0.0
21/03:30pm 16.4 10.4 10.9 70 2.9 WNW 33 43 18 23 1018.9 1018.9 0.0
21/03:00pm 16.9 10.4 10.5 66 3.4 WNW 35 43 19 23 1018.9 1018.9 0.0
21/02:30pm 17.1 10.5 10.0 63 3.7 WNW 35 44 19 24 1018.9 1018.9 0.0
21/02:00pm 17.9 11.3 10.0 60 4.2 NW 35 43 19 23 1018.7 1018.7 0.0
21/01:30pm 17.3 10.9 10.7 65 3.5 WNW 35 43 19 23 1019.0 1019.0 0.0
21/01:00pm 16.9 10.8 10.5 66 3.4 WNW 33 43 18 23 1019.1 1019.1 0.0
21/12:30pm 16.9 9.9 9.8 63 3.7 WNW 37 44 20 24 1019.3 1019.3 0.0
21/12:00pm 17.3 10.8 9.0 58 4.3 WNW 33 39 18 21 1019.2 1019.2 0.0
21/11:30am 18.1 11.1 8.4 53 5.0 WNW 35 43 19 23 1019.3 1019.3 0.0
21/11:00am 17.7 11.3 9.3 58 4.4 W 33 43 18 23 1019.6 1019.6 0.0
21/10:30am 17.2 10.6 9.9 62 3.8 W 35 43 19 23 1019.8 1019.8 0.0
21/10:00am 17.5 11.4 9.7 60 4.1 WNW 32 39 17 21 1019.8 1019.8 0.0
21/09:30am 17.2 11.3 10.6 65 3.5 W 32 39 17 21 1019.9 1019.9 0.0
21/09:00am 17.8 11.3 8.9 56 4.6 WNW 33 37 18 20 1019.8 1019.8 0.2
21/08:30am 16.9 10.8 9.6 62 3.8 WNW 32 39 17 21 1019.8 1019.8 0.2
21/08:00am 17.0 11.4 8.7 58 4.3 WNW 28 33 15 18 1019.5 1019.5 0.2
21/07:30am 16.7 11.2 9.1 61 3.9 WNW 28 39 15 21 1019.3 1019.3 0.2
21/07:00am 16.5 11.2 9.9 65 3.5 WNW 28 33 15 18 1019.2 1019.2 0.2
21/06:30am 16.0 11.0 8.0 59 4.0 WNW 24 30 13 16 1019.2 1019.2 0.2
21/06:00am 15.7 10.2 7.5 58 4.1 W 26 33 14 18 1019.2 1019.2 0.2
21/05:30am 15.7 10.1 8.7 63 3.6 W 28 33 15 18 1019.2 1019.2 0.2
21/05:00am 15.2 9.3 7.3 59 3.9 W 28 39 15 21 1018.8 1018.8 0.2
21/04:30am 15.3 8.6 7.3 59 4.0 W 32 37 17 20 1018.5 1018.5 0.2
21/04:00am 15.3 9.0 7.6 60 3.8 W 30 35 16 19 1018.2 1018.2 0.2
21/03:30am 15.1 9.2 7.6 61 3.7 W 28 35 15 19 1018.2 1018.2 0.2
21/03:00am 15.1 8.8 7.6 61 3.7 WSW 30 39 16 21 1018.3 1018.3 0.2
21/02:30am 15.0 8.8 7.8 62 3.6 W 30 37 16 20 1018.3 1018.3 0.2
21/02:00am 14.9 9.9 6.5 57 4.1 W 22 30 12 16 1018.6 1018.6 0.2
21/01:30am 14.9 9.4 7.5 61 3.7 W 26 33 14 18 1018.7 1018.7 0.2
21/01:00am 14.9 10.1 7.5 61 3.7 W 22 28 12 15 1018.9 1018.9 0.2
21/12:30am 14.9 10.2 7.7 62 3.6 W 22 30 12 16 1019.1 1019.1 0.2
21/12:00am 14.9 9.3 7.0 59 3.9 W 26 32 14 17 1019.4 1019.4 0.2
 
Date/Time
WST
Temp
°C
App
Temp
°C
Dew
Point
°C
Rel
Hum
%
Delta-T
°C
Wind Press
QNH
hPa
Press
MSL
hPa
Rain since
9am
mm
Dir  Spd
km/h
Gust
km/h
Spd
kts
Gust
kts
20/11:30pm 14.8 10.8 6.6 58 4.0 WSW 17 24 9 13 1019.7 1019.7 0.2
20/11:00pm 14.8 10.5 6.9 59 3.8 WSW 19 22 10 12 1020.1 1020.1 0.2
20/10:30pm 14.8 9.8 6.6 58 4.0 WSW 22 30 12 16 1020.2 1020.2 0.2
20/10:00pm 14.5 9.9 6.3 58 3.9 WSW 20 26 11 14 1020.3 1020.3 0.2
20/09:30pm 15.1 9.8 6.9 58 4.0 W 24 30 13 16 1020.4 1020.4 0.2
20/09:00pm 15.1 10.5 6.7 57 4.1 WSW 20 26 11 14 1020.4 1020.4 0.2
20/08:30pm 14.9 9.0 6.0 55 4.3 WSW 26 33 14 18 1020.5 1020.5 0.2
20/08:00pm 15.0 9.8 7.3 60 3.8 SW 24 30 13 16 1020.4 1020.4 0.2
20/07:30pm 15.0 9.5 5.8 54 4.4 WSW 24 30 13 16 1020.2 1020.2 0.2
20/07:00pm 15.2 9.5 6.5 56 4.2 WSW 26 33 14 18 1019.8 1019.8 0.2
20/06:30pm 15.6 10.0 5.5 51 4.8 WSW 24 30 13 16 1019.5 1019.5 0.2
20/06:00pm 16.2 10.6 5.2 48 5.2 SW 24 30 13 16 1019.2 1019.2 0.2
20/05:30pm 15.8 9.7 6.5 54 4.5 SW 28 35 15 19 1019.0 1019.0 0.2
20/05:00pm 16.7 11.3 6.5 51 5.0 SW 24 32 13 17 1018.8 1018.8 0.2
20/04:30pm 16.3 11.2 7.5 56 4.4 SW 24 32 13 17 1018.5 1018.5 0.2
20/04:00pm 17.6 12.0 7.1 50 5.2 SW 26 32 14 17 1018.4 1018.4 0.2
20/03:30pm 18.0 13.1 8.3 53 5.0 SW 24 32 13 17 1018.2 1018.2 0.2
20/03:00pm 17.8 11.6 6.3 47 5.7 SW 28 35 15 19 1017.9 1017.9 0.2
20/02:30pm 17.8 11.5 5.7 45 5.9 SW 28 35 15 19 1017.8 1017.8 0.2
20/02:00pm 18.9 13.1 6.1 43 6.3 SW 26 33 14 18 1017.5 1017.5 0.2
20/01:30pm 18.0 11.4 5.9 45 5.9 SW 30 39 16 21 1017.5 1017.5 0.2
20/01:00pm 18.3 12.7 8.6 53 5.0 SW 28 33 15 18 1017.3 1017.3 0.2
20/12:30pm 18.0 11.3 8.3 53 5.0 SW 33 39 18 21 1017.3 1017.3 0.0
20/12:00pm 16.2 8.3 7.9 58 4.2 SW 39 50 21 27 1017.1 1017.1 0.0
20/11:30am 17.4 10.2 7.7 53 4.9 SW 35 44 19 24 1016.8 1016.8 0.0
20/11:03am 15.6 8.5 9.5 67 3.2 SSW 37 56 20 30 1016.8 1016.8 0.0
20/11:00am 14.1 5.6 6.9 62 3.5 SSW 41 56 22 30 1016.8 1016.8 0.0
20/10:52am 16.8 9.2 7.7 55 4.6 SW 37 56 20 30 1016.6 1016.6 0.0
20/10:30am 17.2 9.0 8.1 55 4.6 SW 41 48 22 26 1016.4 1016.4 0.0
20/10:00am 16.7 8.0 7.6 55 4.6 SW 43 56 23 30 1016.0 1016.0 0.0
20/09:30am 15.7 6.4 7.5 58 4.1 SW 46 56 25 30 1015.7 1015.7 0.0
20/09:00am 13.9 5.4 8.5 70 2.7 SW 43 61 23 33 1015.2 1015.2 1.6
20/08:53am 13.9 5.8 8.5 70 2.7 SSW 41 61 22 33 1015.2 1015.2 1.6
20/08:30am 14.2 5.1 6.8 61 3.6 SW 44 56 24 30 1014.8 1014.8 1.6
20/08:15am 12.7 3.1 8.0 73 2.3 SW 48 67 26 36 1014.8 1014.8 1.6
20/08:00am 14.4 4.6 8.6 68 2.9 SW 50 59 27 32 1014.1 1014.1 1.6
20/07:33am 12.4 5.3 9.4 82 1.5 WSW 37 61 20 33 1013.8 1013.8 1.6
20/07:30am 12.1 4.1 9.1 82 1.5 SW 41 80 22 43 1013.9 1013.9 1.4
20/07:23am 11.8 1.3 7.5 75 2.1 SW 52 80 28 43 1013.7 1013.7 1.2
20/07:00am 14.8 4.0 7.6 62 3.6 SW 54 65 29 35 1012.9 1012.9 0.4
20/06:30am 14.0 3.3 8.0 67 3.0 SW 54 72 29 39 1012.2 1012.2 0.4
20/06:29am 14.4 3.6 7.7 64 3.3 SW 54 72 29 39 1012.2 1012.2 0.4
20/06:00am 14.9 4.1 9.3 69 2.9 WSW 56 65 30 35 1011.8 1011.8 0.4
20/05:30am 13.5 3.3 6.8 64 3.2 SW 50 69 27 37 1011.2 1011.2 0.4
20/05:10am 14.4 2.4 8.1 66 3.1 WSW 61 80 33 43 1010.6 1010.6 0.4
20/05:00am 14.4 2.3 7.7 64 3.3 WSW 61 74 33 40 1010.3 1010.3 0.4
20/04:42am 14.4 3.3 8.8 69 2.8 WSW 57 78 31 42 1010.0 1010.0 0.4
20/04:30am 14.6 4.2 10.6 77 2.1 SW 56 69 30 37 1009.8 1009.8 0.4
20/04:00am 14.9 3.8 8.8 67 3.1 WSW 57 69 31 37 1009.6 1009.6 0.4
20/03:30am 14.3 2.0 9.9 75 2.3 WSW 65 78 35 42 1009.2 1009.2 0.4
20/03:00am 15.4 4.9 11.0 75 2.3 WSW 57 69 31 37 1008.8 1008.7 0.0
20/02:30am 15.2 5.5 10.4 73 2.5 WSW 52 67 28 36 1008.5 1008.4 0.0
20/02:17am 15.7 4.5 11.1 74 2.5 WSW 61 83 33 45 1008.2 1008.1 0.0
20/02:00am 15.6 5.3 11.8 78 2.1 WSW 57 69 31 37 1008.1 1008.0 0.0
20/01:31am 16.0 6.4 12.0 77 2.2 WSW 54 76 29 41 1007.9 1007.8 0.0
20/01:30am 16.4 7.3 12.6 78 2.1 WSW 52 65 28 35 1007.9 1007.8 0.0
20/01:00am 16.5 7.1 11.6 73 2.7 W 52 61 28 33 1007.9 1007.8 0.0
20/12:30am 15.7 7.8 12.8 83 1.6 WSW 46 57 25 31 1008.3 1008.2 0.0
20/12:18am 15.6 5.4 13.3 86 1.3 WSW 59 78 32 42 1008.4 1008.3 0.0
20/12:00am 17.5 7.5 10.6 64 3.7 W 54 63 29 34 1008.2 1008.1 0.0
 
Date/Time
WST
Temp
°C
App
Temp
°C
Dew
Point
°C
Rel
Hum
%
Delta-T
°C
Wind Press
QNH
hPa
Press
MSL
hPa
Rain since
9am
mm
Dir  Spd
km/h
Gust
km/h
Spd
kts
Gust
kts
19/11:30pm 16.8 9.3 12.7 77 2.3 WNW 44 50 24 27 1008.3 1008.2 0.0
19/11:00pm 16.8 8.7 12.1 74 2.6 WNW 46 54 25 29 1008.8 1008.7 0.0
19/10:39pm 17.4 8.9 11.9 70 3.0 W 48 67 26 36 1008.8 1008.7 0.0
19/10:30pm 17.4 8.3 11.4 68 3.3 W 50 59 27 32 1008.9 1008.8 0.0
19/10:00pm 17.6 8.4 10.9 65 3.6 W 50 61 27 33 1009.1 1009.0 0.0
19/09:30pm 17.5 8.5 10.4 63 3.8 W 48 57 26 31 1009.5 1009.5 0.0
19/09:00pm 17.7 9.9 11.9 69 3.2 WNW 44 52 24 28 1009.5 1009.5 0.0
19/08:30pm 17.4 9.2 11.7 69 3.1 W 46 54 25 29 1009.6 1009.6 0.0
19/08:00pm 17.4 8.6 11.0 66 3.5 W 48 56 26 30 1009.6 1009.6 0.0
19/07:30pm 17.5 10.1 11.1 66 3.5 W 41 46 22 25 1009.8 1009.8 0.0
19/07:00pm 17.4 10.7 11.0 66 3.5 W 37 44 20 24 1009.8 1009.8 0.0
19/06:30pm 18.0 10.5 10.9 63 3.8 W 41 48 22 26 1009.8 1009.8 0.0
19/06:00pm 17.8 10.8 11.4 66 3.5 W 39 46 21 25 1009.6 1009.6 0.0
19/05:30pm 18.1 12.3 11.4 65 3.7 W 33 41 18 22 1009.7 1009.7 0.0
19/05:00pm 18.5 12.6 11.3 63 3.9 W 33 41 18 22 1009.7 1009.7 0.0
19/04:30pm 18.9 13.6 11.2 61 4.2 W 30 35 16 19 1009.7 1009.7 0.0
19/04:00pm 18.8 14.2 10.9 60 4.3 W 26 30 14 16 1009.8 1009.8 0.0
19/03:30pm 18.9 14.1 11.5 62 4.1 WSW 28 33 15 18 1010.1 1010.1 0.0
19/03:00pm 18.8 13.6 10.4 58 4.5 WSW 28 32 15 17 1010.5 1010.5 0.0
19/02:30pm 19.6 15.9 11.4 59 4.5 WSW 22 30 12 16 1010.5 1010.5 0.0
19/02:00pm 19.6 15.6 10.3 55 5.0 WSW 22 26 12 14 1010.6 1010.6 0.0
19/01:30pm 19.5 14.8 10.5 56 4.9 SW 26 32 14 17 1010.9 1010.9 0.0
19/01:00pm 18.4 12.7 11.0 62 4.0 SW 32 39 17 21 1011.0 1011.0 0.0
19/12:30pm 17.5 12.7 11.5 68 3.3 SW 28 33 15 18 1010.9 1010.9 0.0
19/12:00pm 17.7 13.3 11.7 68 3.3 SW 26 33 14 18 1011.0 1011.0 0.0
19/11:30am 17.4 12.7 11.9 70 3.0 SW 28 35 15 19 1011.1 1011.1 0.0
19/11:00am 17.7 13.1 12.4 71 2.9 SW 28 35 15 19 1011.1 1011.1 0.0
19/10:30am 17.4 12.9 12.5 73 2.7 SW 28 33 15 18 1011.3 1011.3 0.0
19/10:00am 18.7 15.2 13.3 71 3.1 SW 24 30 13 16 1011.4 1011.4 0.0
19/09:30am 18.1 14.3 13.6 75 2.6 SW 26 32 14 17 1011.7 1011.7 0.0
19/09:00am 17.5 13.6 13.4 77 2.3 SSW 26 33 14 18 1011.9 1011.9 0.0
19/08:30am 17.4 13.3 13.7 79 2.1 SSW 28 33 15 18 1011.8 1011.8 0.0
19/08:00am 17.5 13.8 13.8 79 2.1 SSW 26 32 14 17 1011.8 1011.8 0.0
19/07:30am 17.8 14.8 14.7 82 1.8 SSW 24 28 13 15 1012.0 1012.0 0.0
19/07:00am 17.7 14.7 14.8 83 1.7 SSW 24 30 13 16 1012.0 1012.0 0.0
19/06:30am 17.5 13.7 14.8 84 1.6 SSW 28 32 15 17 1012.0 1012.0 0.0
19/06:00am 17.5 13.5 15.1 86 1.4 SSW 30 33 16 18 1011.9 1011.9 0.0
19/05:30am 17.4 16.3 15.4 88 1.2 S 15 20 8 11 1011.7 1011.7 0.0
19/05:00am 17.4 16.3 15.4 88 1.2 SSE 15 19 8 10 1011.4 1011.4 0.0
19/04:30am 17.3 15.8 15.3 88 1.2 SSE 17 20 9 11 1011.5 1011.5 0.0
19/04:00am 17.3 15.8 15.3 88 1.2 SSE 17 22 9 12 1011.5 1011.5 0.0
19/03:30am 17.4 16.0 15.6 89 1.1 SSE 17 22 9 12 1011.8 1011.8 0.0
19/03:00am 17.5 15.6 15.7 89 1.1 SSE 20 24 11 13 1012.0 1012.0 0.0
19/02:30am 17.7 16.0 15.7 88 1.2 SE 19 26 10 14 1012.3 1012.3 0.0
19/02:00am 17.7 15.9 15.9 89 1.1 SE 20 26 11 14 1012.6 1012.6 0.0
19/01:30am 17.7 15.4 15.7 88 1.2 SE 22 30 12 16 1012.7 1012.7 0.0
19/01:00am 17.8 14.8 15.8 88 1.2 ESE 26 30 14 16 1013.1 1013.1 0.0
19/12:30am 17.8 14.3 15.6 87 1.3 ESE 28 35 15 19 1013.6 1013.6 0.0
19/12:00am 18.1 14.3 15.7 86 1.4 ESE 30 35 16 19 1014.1 1014.1 0.0
 
Date/Time
WST
Temp
°C
App
Temp
°C
Dew
Point
°C
Rel
Hum
%
Delta-T
°C
Wind Press
QNH
hPa
Press
MSL
hPa
Rain since
9am
mm
Dir  Spd
km/h
Gust
km/h
Spd
kts
Gust
kts
18/11:30pm 18.0 14.4 15.3 84 1.6 SE 28 33 15 18 1014.5 1014.5 0.0
18/11:00pm 18.1 14.9 15.4 84 1.6 ESE 26 32 14 17 1014.7 1014.7 0.0
18/10:30pm 18.2 14.7 15.6 85 1.5 ESE 28 35 15 19 1015.0 1015.0 0.0
18/10:00pm 18.2 14.7 15.5 84 1.6 ESE 28 35 15 19 1015.5 1015.5 0.0
18/09:30pm 18.4 14.9 15.6 84 1.6 SE 28 33 15 18 1015.6 1015.6 0.0
18/09:00pm 18.5 15.1 15.7 84 1.7 SE 28 35 15 19 1015.7 1015.7 0.0
18/08:30pm 18.2 14.6 15.3 83 1.7 SSE 28 32 15 17 1015.9 1015.9 0.0
18/08:00pm 18.2 14.7 15.6 85 1.5 SE 28 35 15 19 1015.8 1015.8 0.0
18/07:30pm 18.2 14.8 15.8 86 1.4 SSE 28 35 15 19 1016.0 1016.0 0.0
18/07:00pm 18.1 15.0 15.5 85 1.5 SSE 26 33 14 18 1016.2 1016.2 0.0

Other formats

Comma delimited format used in spreadsheet applications
http://www.bom.gov.au/fwo/IDW60801/IDW60801.94601.axf

JavaScript Object Notation format (JSON) in row-major order
http://www.bom.gov.au/fwo/IDW60801/IDW60801.94601.json

Data quality

Most of these data are generated automatically and are frequently updated. Quality checks on data are not normally performed. It is possible for incorrect values to appear. Refer to information at About Latest Weather Observations and please check the disclaimer before using these data.